Point Lay, Alaska
Current Conditions -  °F | °C
As of 2:56 PM on Monday 24 Nov 2014 (Local Time) from PPIZ Reporting Station
Light Snow Light Snow  
Wind Chill: 10°   Ceiling: NA
Heat Index: 10°   Visibility: 7mi
Dew Point:   Wind: 0mph
Humidity: 88%   Direction: NA
Pressure: 29.96"   Gusts: NA
Location:  69.72°N, 163.09°W
Report Text: PPIZ 242356Z AUTO 00000KT 7SM -SN M12/M14 A2996 RMK AO2 TSNO 51013 60000 T11221138 11116 21155 SNE00B17 P0000 SLP149 $
Loading
Personal Weather Stations






























Interactive Weather Map New forecast layout! Learn more

10-Day Weather Forecast

Advertisements
Track Severe Weather on mobile